Aviation Digital Data Service (ADDS)

Output produced by METARs form (0331 UTC 19 August 2019)
found at http://www.aviationweather.gov/metar/data/
 
METAR text: LEAB 190300Z 24005KT CAVOK 20/06 Q1017 NOSIG
Conditions at: LEAB (ALBACETE (CIV/MI, ES) observed 0300 UTC 19 August 2019
Temperature: 20.0°C (68°F)
Dewpoint: 6.0°C (43°F) [RH = 40%]
Pressure (altimeter): 30.03 inches Hg (1017.0 mb)
Winds: from the WSW (240 degrees) at 6 MPH (5 knots; 2.6 m/s)
Visibility: 6 or more miles (10+ km)
Ceiling: ceiling and visibility are OK
Clouds: unknown
Weather: no significant weather observed at this time

METAR text: LEAB 190200Z 00000KT CAVOK 19/05 Q1017 NOSIG
Conditions at: LEAB (ALBACETE (CIV/MI, ES) observed 0200 UTC 19 August 2019
Temperature: 19.0°C (66°F)
Dewpoint: 5.0°C (41°F) [RH = 40%]
Pressure (altimeter): 30.03 inches Hg (1017.0 mb)
Winds: calm
Visibility: 6 or more miles (10+ km)
Ceiling: ceiling and visibility are OK
Clouds: unknown
Weather: no significant weather observed at this time

METAR text: LEAB 190100Z 26005KT CAVOK 22/05 Q1017 NOSIG
Conditions at: LEAB (ALBACETE (CIV/MI, ES) observed 0100 UTC 19 August 2019
Temperature: 22.0°C (72°F)
Dewpoint: 5.0°C (41°F) [RH = 33%]
Pressure (altimeter): 30.03 inches Hg (1017.0 mb)
Winds: from the W (260 degrees) at 6 MPH (5 knots; 2.6 m/s)
Visibility: 6 or more miles (10+ km)
Ceiling: ceiling and visibility are OK
Clouds: unknown
Weather: no significant weather observed at this time

METAR text: LEAB 190000Z 25004KT CAVOK 22/07 Q1017 NOSIG
Conditions at: LEAB (ALBACETE (CIV/MI, ES) observed 0000 UTC 19 August 2019
Temperature: 22.0°C (72°F)
Dewpoint: 7.0°C (45°F) [RH = 38%]
Pressure (altimeter): 30.03 inches Hg (1017.0 mb)
Winds: from the WSW (250 degrees) at 5 MPH (4 knots; 2.1 m/s)
Visibility: 6 or more miles (10+ km)
Ceiling: ceiling and visibility are OK
Clouds: unknown
Weather: no significant weather observed at this time

METAR text: LEAB 182300Z 23005KT CAVOK 24/08 Q1017 NOSIG
Conditions at: LEAB (ALBACETE (CIV/MI, ES) observed 2300 UTC 18 August 2019
Temperature: 24.0°C (75°F)
Dewpoint: 8.0°C (46°F) [RH = 36%]
Pressure (altimeter): 30.03 inches Hg (1017.0 mb)
Winds: from the SW (230 degrees) at 6 MPH (5 knots; 2.6 m/s)
Visibility: 6 or more miles (10+ km)
Ceiling: ceiling and visibility are OK
Clouds: unknown
Weather: no significant weather observed at this time

METAR text: LEAB 182200Z 22005KT CAVOK 26/08 Q1016 NOSIG
Conditions at: LEAB (ALBACETE (CIV/MI, ES) observed 2200 UTC 18 August 2019
Temperature: 26.0°C (79°F)
Dewpoint: 8.0°C (46°F) [RH = 32%]
Pressure (altimeter): 30.00 inches Hg (1016.0 mb)
Winds: from the SW (220 degrees) at 6 MPH (5 knots; 2.6 m/s)
Visibility: 6 or more miles (10+ km)
Ceiling: ceiling and visibility are OK
Clouds: unknown
Weather: no significant weather observed at this time

METAR text: LEAB 182100Z 19006KT CAVOK 28/09 Q1016 NOSIG
Conditions at: LEAB (ALBACETE (CIV/MI, ES) observed 2100 UTC 18 August 2019
Temperature: 28.0°C (82°F)
Dewpoint: 9.0°C (48°F) [RH = 30%]
Pressure (altimeter): 30.00 inches Hg (1016.0 mb)
Winds: from the S (190 degrees) at 7 MPH (6 knots; 3.1 m/s)
Visibility: 6 or more miles (10+ km)
Ceiling: ceiling and visibility are OK
Clouds: unknown
Weather: no significant weather observed at this time

METAR text: LEAB 182000Z 20005KT 160V240 CAVOK 29/10 Q1015 NOSIG
Conditions at: LEAB (ALBACETE (CIV/MI, ES) observed 2000 UTC 18 August 2019
Temperature: 29.0°C (84°F)
Dewpoint: 10.0°C (50°F) [RH = 31%]
Pressure (altimeter): 29.97 inches Hg (1015.0 mb)
Winds: from the SSW (200 degrees) at 6 MPH (5 knots; 2.6 m/s)
Visibility: 6 or more miles (10+ km)
Ceiling: ceiling and visibility are OK
Clouds: unknown
Weather: no significant weather observed at this time

METAR text: LEAB 181900Z 18008KT 150V210 9999 FEW090TCU 31/13 Q1014 NOSIG
Conditions at: LEAB (ALBACETE (CIV/MI, ES) observed 1900 UTC 18 August 2019
Temperature: 31.0°C (88°F)
Dewpoint: 13.0°C (55°F) [RH = 33%]
Pressure (altimeter): 29.94 inches Hg (1014.0 mb)
Winds: from the S (180 degrees) at 9 MPH (8 knots; 4.1 m/s)
Visibility: 6 or more miles (10+ km)
Ceiling: at least 12,000 feet AGL
Clouds: few clouds at 9000 feet AGL
Weather: no significant weather observed at this time

METAR text: LEAB 181800Z 18008KT 120V220 CAVOK 33/14 Q1013 NOSIG
Conditions at: LEAB (ALBACETE (CIV/MI, ES) observed 1800 UTC 18 August 2019
Temperature: 33.0°C (91°F)
Dewpoint: 14.0°C (57°F) [RH = 32%]
Pressure (altimeter): 29.91 inches Hg (1013.0 mb)
Winds: from the S (180 degrees) at 9 MPH (8 knots; 4.1 m/s)
Visibility: 6 or more miles (10+ km)
Ceiling: ceiling and visibility are OK
Clouds: unknown
Weather: no significant weather observed at this time

METAR text: LEAB 181700Z 07004KT 020V170 CAVOK 36/05 Q1013 NOSIG
Conditions at: LEAB (ALBACETE (CIV/MI, ES) observed 1700 UTC 18 August 2019
Temperature: 36.0°C (97°F)
Dewpoint: 5.0°C (41°F) [RH = 15%]
Pressure (altimeter): 29.91 inches Hg (1013.0 mb)
Winds: from the ENE (70 degrees) at 5 MPH (4 knots; 2.1 m/s)
Visibility: 6 or more miles (10+ km)
Ceiling: ceiling and visibility are OK
Clouds: unknown
Weather: no significant weather observed at this time

METAR text: LEAB 181600Z VRB03KT CAVOK 37/04 Q1013 NOSIG
Conditions at: LEAB (ALBACETE (CIV/MI, ES) observed 1600 UTC 18 August 2019
Temperature: 37.0°C (99°F)
Dewpoint: 4.0°C (39°F) [RH = 13%]
Pressure (altimeter): 29.91 inches Hg (1013.0 mb)
Winds: variable direction winds at 3 MPH (3 knots; 1.5 m/s)
Visibility: 6 or more miles (10+ km)
Ceiling: ceiling and visibility are OK
Clouds: unknown
Weather: no significant weather observed at this time

METAR text: LEAB 181500Z VRB04KT CAVOK 37/05 Q1014 NOSIG
Conditions at: LEAB (ALBACETE (CIV/MI, ES) observed 1500 UTC 18 August 2019
Temperature: 37.0°C (99°F)
Dewpoint: 5.0°C (41°F) [RH = 14%]
Pressure (altimeter): 29.94 inches Hg (1014.0 mb)
Winds: variable direction winds at 5 MPH (4 knots; 2.1 m/s)
Visibility: 6 or more miles (10+ km)
Ceiling: ceiling and visibility are OK
Clouds: unknown
Weather: no significant weather observed at this time

METAR text: LEAB 181400Z 31006KT 260V040 CAVOK 36/07 Q1015 NOSIG
Conditions at: LEAB (ALBACETE (CIV/MI, ES) observed 1400 UTC 18 August 2019
Temperature: 36.0°C (97°F)
Dewpoint: 7.0°C (45°F) [RH = 17%]
Pressure (altimeter): 29.97 inches Hg (1015.0 mb)
Winds: from the NW (310 degrees) at 7 MPH (6 knots; 3.1 m/s)
Visibility: 6 or more miles (10+ km)
Ceiling: ceiling and visibility are OK
Clouds: unknown
Weather: no significant weather observed at this time

METAR text: LEAB 181300Z VRB04KT CAVOK 35/07 Q1015 NOSIG
Conditions at: LEAB (ALBACETE (CIV/MI, ES) observed 1300 UTC 18 August 2019
Temperature: 35.0°C (95°F)
Dewpoint: 7.0°C (45°F) [RH = 18%]
Pressure (altimeter): 29.97 inches Hg (1015.0 mb)
Winds: variable direction winds at 5 MPH (4 knots; 2.1 m/s)
Visibility: 6 or more miles (10+ km)
Ceiling: ceiling and visibility are OK
Clouds: unknown
Weather: no significant weather observed at this time

METAR text: LEAB 181200Z 33005KT 260V020 CAVOK 34/08 Q1016 NOSIG
Conditions at: LEAB (ALBACETE (CIV/MI, ES) observed 1200 UTC 18 August 2019
Temperature: 34.0°C (93°F)
Dewpoint: 8.0°C (46°F) [RH = 20%]
Pressure (altimeter): 30.00 inches Hg (1016.0 mb)
Winds: from the NNW (330 degrees) at 6 MPH (5 knots; 2.6 m/s)
Visibility: 6 or more miles (10+ km)
Ceiling: ceiling and visibility are OK
Clouds: unknown
Weather: no significant weather observed at this time

METAR text: LEAB 181100Z 02005KT 330V070 CAVOK 33/10 Q1016 NOSIG
Conditions at: LEAB (ALBACETE (CIV/MI, ES) observed 1100 UTC 18 August 2019
Temperature: 33.0°C (91°F)
Dewpoint: 10.0°C (50°F) [RH = 24%]
Pressure (altimeter): 30.00 inches Hg (1016.0 mb)
Winds: from the NNE (20 degrees) at 6 MPH (5 knots; 2.6 m/s)
Visibility: 6 or more miles (10+ km)
Ceiling: ceiling and visibility are OK
Clouds: unknown
Weather: no significant weather observed at this time

METAR text: LEAB 181000Z 23004KT 150V290 CAVOK 31/10 Q1017 NOSIG
Conditions at: LEAB (ALBACETE (CIV/MI, ES) observed 1000 UTC 18 August 2019
Temperature: 31.0°C (88°F)
Dewpoint: 10.0°C (50°F) [RH = 27%]
Pressure (altimeter): 30.03 inches Hg (1017.0 mb)
Winds: from the SW (230 degrees) at 5 MPH (4 knots; 2.1 m/s)
Visibility: 6 or more miles (10+ km)
Ceiling: ceiling and visibility are OK
Clouds: unknown
Weather: no significant weather observed at this time

METAR text: LEAB 180900Z VRB04KT CAVOK 29/10 Q1017 NOSIG
Conditions at: LEAB (ALBACETE (CIV/MI, ES) observed 0900 UTC 18 August 2019
Temperature: 29.0°C (84°F)
Dewpoint: 10.0°C (50°F) [RH = 31%]
Pressure (altimeter): 30.03 inches Hg (1017.0 mb)
Winds: variable direction winds at 5 MPH (4 knots; 2.1 m/s)
Visibility: 6 or more miles (10+ km)
Ceiling: ceiling and visibility are OK
Clouds: unknown
Weather: no significant weather observed at this time

METAR text: LEAB 180800Z 00000KT CAVOK 27/11 Q1016 NOSIG
Conditions at: LEAB (ALBACETE (CIV/MI, ES) observed 0800 UTC 18 August 2019
Temperature: 27.0°C (81°F)
Dewpoint: 11.0°C (52°F) [RH = 37%]
Pressure (altimeter): 30.00 inches Hg (1016.0 mb)
Winds: calm
Visibility: 6 or more miles (10+ km)
Ceiling: ceiling and visibility are OK
Clouds: unknown
Weather: no significant weather observed at this time

METAR text: LEAB 180700Z 16004KT 130V210 CAVOK 23/12 Q1016 NOSIG
Conditions at: LEAB (ALBACETE (CIV/MI, ES) observed 0700 UTC 18 August 2019
Temperature: 23.0°C (73°F)
Dewpoint: 12.0°C (54°F) [RH = 50%]
Pressure (altimeter): 30.00 inches Hg (1016.0 mb)
Winds: from the SSE (160 degrees) at 5 MPH (4 knots; 2.1 m/s)
Visibility: 6 or more miles (10+ km)
Ceiling: ceiling and visibility are OK
Clouds: unknown
Weather: no significant weather observed at this time

METAR text: LEAB 180600Z 18006KT CAVOK 19/12 Q1016 NOSIG
Conditions at: LEAB (ALBACETE (CIV/MI, ES) observed 0600 UTC 18 August 2019
Temperature: 19.0°C (66°F)
Dewpoint: 12.0°C (54°F) [RH = 64%]
Pressure (altimeter): 30.00 inches Hg (1016.0 mb)
Winds: from the S (180 degrees) at 7 MPH (6 knots; 3.1 m/s)
Visibility: 6 or more miles (10+ km)
Ceiling: ceiling and visibility are OK
Clouds: unknown
Weather: no significant weather observed at this time

METAR text: LEAB 180500Z 16005KT CAVOK 20/12 Q1015 NOSIG
Conditions at: LEAB (ALBACETE (CIV/MI, ES) observed 0500 UTC 18 August 2019
Temperature: 20.0°C (68°F)
Dewpoint: 12.0°C (54°F) [RH = 60%]
Pressure (altimeter): 29.97 inches Hg (1015.0 mb)
Winds: from the SSE (160 degrees) at 6 MPH (5 knots; 2.6 m/s)
Visibility: 6 or more miles (10+ km)
Ceiling: ceiling and visibility are OK
Clouds: unknown
Weather: no significant weather observed at this time

METAR text: LEAB 180400Z 16005KT CAVOK 21/12 Q1015 NOSIG
Conditions at: LEAB (ALBACETE (CIV/MI, ES) observed 0400 UTC 18 August 2019
Temperature: 21.0°C (70°F)
Dewpoint: 12.0°C (54°F) [RH = 56%]
Pressure (altimeter): 29.97 inches Hg (1015.0 mb)
Winds: from the SSE (160 degrees) at 6 MPH (5 knots; 2.6 m/s)
Visibility: 6 or more miles (10+ km)
Ceiling: ceiling and visibility are OK
Clouds: unknown
Weather: no significant weather observed at this time

METAR text: LEAB 180300Z 15005KT CAVOK 23/12 Q1015 NOSIG
Conditions at: LEAB (ALBACETE (CIV/MI, ES) observed 0300 UTC 18 August 2019
Temperature: 23.0°C (73°F)
Dewpoint: 12.0°C (54°F) [RH = 50%]
Pressure (altimeter): 29.97 inches Hg (1015.0 mb)
Winds: from the SSE (150 degrees) at 6 MPH (5 knots; 2.6 m/s)
Visibility: 6 or more miles (10+ km)
Ceiling: ceiling and visibility are OK
Clouds: unknown
Weather: no significant weather observed at this time

METAR text: LEAB 180200Z 16008KT CAVOK 23/13 Q1016 NOSIG
Conditions at: LEAB (ALBACETE (CIV/MI, ES) observed 0200 UTC 18 August 2019
Temperature: 23.0°C (73°F)
Dewpoint: 13.0°C (55°F) [RH = 53%]
Pressure (altimeter): 30.00 inches Hg (1016.0 mb)
Winds: from the SSE (160 degrees) at 9 MPH (8 knots; 4.1 m/s)
Visibility: 6 or more miles (10+ km)
Ceiling: ceiling and visibility are OK
Clouds: unknown
Weather: no significant weather observed at this time

METAR text: LEAB 180100Z 17007KT 140V200 CAVOK 24/13 Q1016 NOSIG
Conditions at: LEAB (ALBACETE (CIV/MI, ES) observed 0100 UTC 18 August 2019
Temperature: 24.0°C (75°F)
Dewpoint: 13.0°C (55°F) [RH = 50%]
Pressure (altimeter): 30.00 inches Hg (1016.0 mb)
Winds: from the S (170 degrees) at 8 MPH (7 knots; 3.6 m/s)
Visibility: 6 or more miles (10+ km)
Ceiling: ceiling and visibility are OK
Clouds: unknown
Weather: no significant weather observed at this time

METAR text: LEAB 180000Z 17010KT 140V200 CAVOK 25/13 Q1016 NOSIG
Conditions at: LEAB (ALBACETE (CIV/MI, ES) observed 0000 UTC 18 August 2019
Temperature: 25.0°C (77°F)
Dewpoint: 13.0°C (55°F) [RH = 47%]
Pressure (altimeter): 30.00 inches Hg (1016.0 mb)
Winds: from the S (170 degrees) at 12 MPH (10 knots; 5.1 m/s)
Visibility: 6 or more miles (10+ km)
Ceiling: ceiling and visibility are OK
Clouds: unknown
Weather: no significant weather observed at this time

METAR text: LEAB 172300Z 16008KT 130V190 CAVOK 26/14 Q1016 NOSIG
Conditions at: LEAB (ALBACETE (CIV/MI, ES) observed 2300 UTC 17 August 2019
Temperature: 26.0°C (79°F)
Dewpoint: 14.0°C (57°F) [RH = 48%]
Pressure (altimeter): 30.00 inches Hg (1016.0 mb)
Winds: from the SSE (160 degrees) at 9 MPH (8 knots; 4.1 m/s)
Visibility: 6 or more miles (10+ km)
Ceiling: ceiling and visibility are OK
Clouds: unknown
Weather: no significant weather observed at this time

METAR text: LEAB 172200Z 15009KT CAVOK 27/14 Q1016 NOSIG
Conditions at: LEAB (ALBACETE (CIV/MI, ES) observed 2200 UTC 17 August 2019
Temperature: 27.0°C (81°F)
Dewpoint: 14.0°C (57°F) [RH = 45%]
Pressure (altimeter): 30.00 inches Hg (1016.0 mb)
Winds: from the SSE (150 degrees) at 10 MPH (9 knots; 4.6 m/s)
Visibility: 6 or more miles (10+ km)
Ceiling: ceiling and visibility are OK
Clouds: unknown
Weather: no significant weather observed at this time

METAR text: LEAB 172100Z 18008KT 140V200 CAVOK 27/15 Q1016 NOSIG
Conditions at: LEAB (ALBACETE (CIV/MI, ES) observed 2100 UTC 17 August 2019
Temperature: 27.0°C (81°F)
Dewpoint: 15.0°C (59°F) [RH = 48%]
Pressure (altimeter): 30.00 inches Hg (1016.0 mb)
Winds: from the S (180 degrees) at 9 MPH (8 knots; 4.1 m/s)
Visibility: 6 or more miles (10+ km)
Ceiling: ceiling and visibility are OK
Clouds: unknown
Weather: no significant weather observed at this time

METAR text: LEAB 172000Z 18008KT 140V210 CAVOK 29/16 Q1015 NOSIG
Conditions at: LEAB (ALBACETE (CIV/MI, ES) observed 2000 UTC 17 August 2019
Temperature: 29.0°C (84°F)
Dewpoint: 16.0°C (61°F) [RH = 45%]
Pressure (altimeter): 29.97 inches Hg (1015.0 mb)
Winds: from the S (180 degrees) at 9 MPH (8 knots; 4.1 m/s)
Visibility: 6 or more miles (10+ km)
Ceiling: ceiling and visibility are OK
Clouds: unknown
Weather: no significant weather observed at this time

METAR text: LEAB 171900Z 18008KT 140V210 CAVOK 31/15 Q1015 NOSIG
Conditions at: LEAB (ALBACETE (CIV/MI, ES) observed 1900 UTC 17 August 2019
Temperature: 31.0°C (88°F)
Dewpoint: 15.0°C (59°F) [RH = 38%]
Pressure (altimeter): 29.97 inches Hg (1015.0 mb)
Winds: from the S (180 degrees) at 9 MPH (8 knots; 4.1 m/s)
Visibility: 6 or more miles (10+ km)
Ceiling: ceiling and visibility are OK
Clouds: unknown
Weather: no significant weather observed at this time

METAR text: LEAB 171800Z 18009KT 150V210 CAVOK 33/13 Q1015 NOSIG
Conditions at: LEAB (ALBACETE (CIV/MI, ES) observed 1800 UTC 17 August 2019
Temperature: 33.0°C (91°F)
Dewpoint: 13.0°C (55°F) [RH = 30%]
Pressure (altimeter): 29.97 inches Hg (1015.0 mb)
Winds: from the S (180 degrees) at 10 MPH (9 knots; 4.6 m/s)
Visibility: 6 or more miles (10+ km)
Ceiling: ceiling and visibility are OK
Clouds: unknown
Weather: no significant weather observed at this time

METAR text: LEAB 171700Z 18009KT CAVOK 36/11 Q1015 NOSIG
Conditions at: LEAB (ALBACETE (CIV/MI, ES) observed 1700 UTC 17 August 2019
Temperature: 36.0°C (97°F)
Dewpoint: 11.0°C (52°F) [RH = 22%]
Pressure (altimeter): 29.97 inches Hg (1015.0 mb)
Winds: from the S (180 degrees) at 10 MPH (9 knots; 4.6 m/s)
Visibility: 6 or more miles (10+ km)
Ceiling: ceiling and visibility are OK
Clouds: unknown
Weather: no significant weather observed at this time

METAR text: LEAB 171600Z 18006KT 120V240 CAVOK 37/10 Q1016 NOSIG
Conditions at: LEAB (ALBACETE (CIV/MI, ES) observed 1600 UTC 17 August 2019
Temperature: 37.0°C (99°F)
Dewpoint: 10.0°C (50°F) [RH = 20%]
Pressure (altimeter): 30.00 inches Hg (1016.0 mb)
Winds: from the S (180 degrees) at 7 MPH (6 knots; 3.1 m/s)
Visibility: 6 or more miles (10+ km)
Ceiling: ceiling and visibility are OK
Clouds: unknown
Weather: no significant weather observed at this time

Forecast for: LEAB (ALBACETE (CIV/MI, ES)
Text: TAF LEAB 190200Z 1903/1912 VRB05KT CAVOK
Forecast period: 0300 to 1200 UTC 19 August 2019
Forecast type: FROM: standard forecast or significant change
Winds: variable direction winds at 6 MPH (5 knots; 2.6 m/s)
Visibility: 6 or more miles 10+ km)
Ceiling: unknown
Clouds: missing
Weather: NSW  (no significant weather)